Felix-Klein-Gymnasium, Gttingen, 150m NN
Donnes mto: Actuelle Montag, 27.03.2017 04:15
Date Horaire Temp. E. Hum. E. P.atmo. Pluie Vent Direction Direction Ensoleilleme P. de rose Temp au vent Rafales
27.03.2017 04:15 1,9 C 83 % 1024,4 hPa 0,0 mm 0,0 km/h (0 Bft) S-SO 200 0 min -0,7 C 1,9 C 1,6 km/h (1 Bft)
27.03.2017 04:00 2,2 C 82 % 1024,3 hPa 0,0 mm 0,0 km/h (0 Bft) S-SO 200 0 min -0,5 C 2,2 C 1,6 km/h (1 Bft)
27.03.2017 03:45 2,5 C 81 % 1024,3 hPa 0,0 mm 0,0 km/h (0 Bft) S-SO 200 0 min -0,4 C 2,5 C 0,0 km/h (0 Bft)
27.03.2017 03:30 2,7 C 81 % 1024,3 hPa 0,0 mm 0,4 km/h (0 Bft) S-SO 200 0 min -0,2 C 2,7 C 4,8 km/h (1 Bft)
27.03.2017 03:15 3,1 C 80 % 1024,4 hPa 0,0 mm 0,0 km/h (0 Bft) S-SO 200 0 min -0,0 C 3,1 C 1,6 km/h (1 Bft)
27.03.2017 03:00 3,3 C 78 % 1024,3 hPa 0,0 mm 0,0 km/h (0 Bft) S-SO 200 0 min -0,2 C 3,3 C 0,0 km/h (0 Bft)
27.03.2017 02:45 3,3 C 78 % 1024,3 hPa 0,0 mm 0,0 km/h (0 Bft) S-SO 200 0 min -0,2 C 3,3 C 0,0 km/h (0 Bft)
27.03.2017 02:30 3,6 C 77 % 1024,5 hPa 0,0 mm 0,2 km/h (0 Bft) S-SO 200 0 min -0,0 C 3,6 C 3,2 km/h (1 Bft)
27.03.2017 02:15 3,9 C 76 % 1024,7 hPa 0,0 mm 0,0 km/h (0 Bft) S-SO 200 0 min 0,1 C 3,9 C 0,0 km/h (0 Bft)
27.03.2017 02:00 4,1 C 75 % 1024,5 hPa 0,0 mm 0,6 km/h (0 Bft) S-SO 200 0 min 0,1 C 4,1 C 3,2 km/h (1 Bft)
27.03.2017 01:45 4,4 C 74 % 1024,6 hPa 0,0 mm 0,9 km/h (0 Bft) S-SO 199 0 min 0,2 C 4,4 C 4,8 km/h (1 Bft)
27.03.2017 01:30 4,9 C 71 % 1024,7 hPa 0,0 mm 0,0 km/h (0 Bft) SO 230 0 min 0,1 C 4,9 C 3,2 km/h (1 Bft)
27.03.2017 01:15 5,3 C 70 % 1024,6 hPa 0,0 mm 0,2 km/h (0 Bft) SO 230 0 min 0,3 C 5,3 C 3,2 km/h (1 Bft)
27.03.2017 01:00 5,8 C 68 % 1024,6 hPa 0,0 mm 0,1 km/h (0 Bft) SO 230 0 min 0,4 C 5,8 C 1,6 km/h (1 Bft)
27.03.2017 00:45 6,2 C 66 % 1024,7 hPa 0,0 mm 0,5 km/h (0 Bft) SO 230 0 min 0,3 C 6,2 C 6,4 km/h (2 Bft)
27.03.2017 00:30 6,4 C 66 % 1024,7 hPa 0,0 mm 1,5 km/h (1 Bft) SO 224 0 min 0,5 C 6,4 C 4,8 km/h (1 Bft)
27.03.2017 00:15 6,5 C 65 % 1024,7 hPa 0,0 mm 3,1 km/h (1 Bft) SO 234 0 min 0,4 C 6,5 C 8,0 km/h (2 Bft)
27.03.2017 00:00 6,6 C 65 % 1024,8 hPa 0,0 mm 3,8 km/h (1 Bft) SO 236 0 min 0,5 C 6,6 C 9,7 km/h (2 Bft)
26.03.2017 22:45 7,8 C 62 % 1024,3 hPa 0,0 mm 3,2 km/h (1 Bft) SO 224 0 min 1,0 C 7,8 C 8,0 km/h (2 Bft)
26.03.2017 22:30 8,7 C 60 % 1024,2 hPa 0,0 mm 2,1 km/h (1 Bft) SO 228 0 min 1,4 C 8,7 C 9,7 km/h (2 Bft)
26.03.2017 22:15 9,3 C 55 % 1024,2 hPa 0,0 mm 2,2 km/h (1 Bft) S 183 0 min 0,7 C 9,3 C 9,7 km/h (2 Bft)
26.03.2017 22:00 10,2 C 51 % 1024,1 hPa 0,0 mm 5,1 km/h (1 Bft) S-SE 165 0 min 0,5 C 10,2 C 16,1 km/h (3 Bft)
26.03.2017 21:45 10,2 C 51 % 1023,8 hPa 0,0 mm 6,6 km/h (2 Bft) S 173 0 min 0,5 C 10,2 C 16,1 km/h (3 Bft)
26.03.2017 21:30 10,3 C 51 % 1023,6 hPa 0,0 mm 8,2 km/h (2 Bft) SE 139 0 min 0,6 C 10,3 C 16,1 km/h (3 Bft)
26.03.2017 21:15 10,4 C 50 % 1023,6 hPa 0,0 mm 9,9 km/h (2 Bft) E-SE 116 0 min 0,4 C 10,4 C 19,3 km/h (3 Bft)
26.03.2017 21:00 10,6 C 50 % 1023,5 hPa 0,0 mm 8,8 km/h (2 Bft) SE 132 0 min 0,6 C 10,6 C 19,3 km/h (3 Bft)
26.03.2017 20:45 10,7 C 49 % 1023,4 hPa 0,0 mm 9,0 km/h (2 Bft) E-SE 115 0 min 0,4 C 10,7 C 16,1 km/h (3 Bft)
26.03.2017 20:30 10,8 C 49 % 1023,3 hPa 0,0 mm 6,0 km/h (2 Bft) E-SE 112 0 min 0,5 C 10,8 C 17,7 km/h (3 Bft)
26.03.2017 20:15 11,1 C 49 % 1023,2 hPa 0,0 mm 4,6 km/h (1 Bft) SE 126 0 min 0,8 C 11,1 C 9,7 km/h (2 Bft)
26.03.2017 20:00 11,4 C 49 % 1023,0 hPa 0,0 mm 3,5 km/h (1 Bft) SE 135 0 min 1,1 C 11,4 C 8,0 km/h (2 Bft)
26.03.2017 19:45 11,7 C 48 % 1022,9 hPa 0,0 mm 6,1 km/h (2 Bft) SE 143 0 min 1,1 C 11,7 C 14,5 km/h (3 Bft)
26.03.2017 19:30 12,0 C 47 % 1022,6 hPa 0,0 mm 5,5 km/h (1 Bft) E-SE 118 0 min 1,0 C 12,0 C 12,9 km/h (3 Bft)
26.03.2017 19:15 12,3 C 47 % 1022,5 hPa 0,0 mm 6,2 km/h (2 Bft) S-SE 151 0 min 1,3 C 12,3 C 14,5 km/h (3 Bft)
26.03.2017 19:00 12,6 C 47 % 1022,6 hPa 0,0 mm 5,5 km/h (1 Bft) SE 143 0 min 1,6 C 12,6 C 14,5 km/h (3 Bft)
26.03.2017 18:45 12,7 C 46 % 1022,6 hPa 0,0 mm 7,8 km/h (2 Bft) SE 130 0 min 1,4 C 12,7 C 19,3 km/h (3 Bft)
26.03.2017 18:30 12,9 C 46 % 1022,4 hPa 0,0 mm 7,2 km/h (2 Bft) S 174 0 min 1,6 C 12,9 C 17,7 km/h (3 Bft)
26.03.2017 18:15 13,1 C 42 % 1022,4 hPa 0,0 mm 9,0 km/h (2 Bft) E 101 0 min 0,5 C 13,1 C 19,3 km/h (3 Bft)
26.03.2017 18:00 13,3 C 40 % 1022,4 hPa 0,0 mm 4,6 km/h (1 Bft) E 90 15 min -0,0 C 13,3 C 14,5 km/h (3 Bft)
26.03.2017 17:45 13,5 C 40 % 1022,5 hPa 0,0 mm 6,6 km/h (2 Bft) SE 137 15 min 0,2 C 13,5 C 20,9 km/h (4 Bft)
26.03.2017 17:30 13,8 C 40 % 1022,4 hPa 0,0 mm 7,6 km/h (2 Bft) E 89 15 min 0,4 C 13,8 C 20,9 km/h (4 Bft)
26.03.2017 17:15 13,6 C 41 % 1022,4 hPa 0,0 mm 8,2 km/h (2 Bft) S-SE 148 15 min 0,6 C 13,6 C 20,9 km/h (4 Bft)
26.03.2017 17:00 13,4 C 43 % 1022,4 hPa 0,0 mm 8,8 km/h (2 Bft) S-SO 203 15 min 1,1 C 13,4 C 20,9 km/h (4 Bft)
26.03.2017 16:45 13,6 C 44 % 1022,5 hPa 0,0 mm 6,1 km/h (2 Bft) S-SO 193 15 min 1,6 C 13,6 C 19,3 km/h (3 Bft)
26.03.2017 16:30 13,2 C 46 % 1022,6 hPa 0,0 mm 9,5 km/h (2 Bft) E-SE 122 15 min 1,8 C 13,2 C 25,7 km/h (4 Bft)
26.03.2017 16:15 13,5 C 46 % 1022,7 hPa 0,0 mm 9,9 km/h (2 Bft) SE 134 15 min 2,1 C 13,5 C 22,5 km/h (4 Bft)
26.03.2017 16:00 13,7 C 45 % 1022,6 hPa 0,0 mm 8,8 km/h (2 Bft) SE 128 15 min 2,0 C 13,7 C 24,1 km/h (4 Bft)
26.03.2017 15:45 13,7 C 45 % 1022,7 hPa 0,0 mm 7,4 km/h (2 Bft) SE 137 15 min 2,0 C 13,7 C 19,3 km/h (3 Bft)
26.03.2017 15:30 13,6 C 45 % 1022,7 hPa 0,0 mm 6,7 km/h (2 Bft) S 172 15 min 1,9 C 13,6 C 20,9 km/h (4 Bft)
26.03.2017 15:15 13,1 C 42 % 1022,7 hPa 0,0 mm 6,3 km/h (2 Bft) E 95 15 min 0,5 C 13,1 C 16,1 km/h (3 Bft)
26.03.2017 15:00 12,7 C 43 % 1023,0 hPa 0,0 mm 9,9 km/h (2 Bft) SE 125 15 min 0,5 C 12,7 C 20,9 km/h (4 Bft)
26.03.2017 14:45 12,4 C 47 % 1023,1 hPa 0,0 mm 10,0 km/h (2 Bft) NE 47 15 min 1,4 C 12,4 C 19,3 km/h (3 Bft)
26.03.2017 14:30 12,7 C 46 % 1023,1 hPa 0,0 mm 7,8 km/h (2 Bft) NE 54 15 min 1,4 C 12,7 C 19,3 km/h (3 Bft)
26.03.2017 14:15 13,1 C 46 % 1023,0 hPa 0,0 mm 3,3 km/h (1 Bft) E 98 15 min 1,7 C 13,1 C 12,9 km/h (3 Bft)
26.03.2017 14:00 12,4 C 51 % 1023,1 hPa 0,0 mm 5,4 km/h (1 Bft) S-SE 167 15 min 2,6 C 12,4 C 14,5 km/h (3 Bft)
26.03.2017 13:45 12,7 C 51 % 1023,0 hPa 0,0 mm 3,4 km/h (1 Bft) SE 145 15 min 2,8 C 12,7 C 14,5 km/h (3 Bft)
26.03.2017 13:30 11,7 C 52 % 1023,2 hPa 0,0 mm 6,3 km/h (2 Bft) SE 143 15 min 2,2 C 11,7 C 17,7 km/h (3 Bft)
26.03.2017 13:15 11,6 C 53 % 1023,4 hPa 0,0 mm 6,7 km/h (2 Bft) SE 137 15 min 2,4 C 11,6 C 17,7 km/h (3 Bft)
26.03.2017 13:00 11,2 C 56 % 1023,5 hPa 0,0 mm 7,9 km/h (2 Bft) SE 124 15 min 2,8 C 11,2 C 17,7 km/h (3 Bft)
26.03.2017 12:45 11,4 C 56 % 1023,6 hPa 0,0 mm 5,6 km/h (1 Bft) SE 124 15 min 2,9 C 11,4 C 16,1 km/h (3 Bft)
26.03.2017 12:30 10,8 C 57 % 1023,6 hPa 0,0 mm 7,0 km/h (2 Bft) E 87 15 min 2,6 C 10,8 C 16,1 km/h (3 Bft)
26.03.2017 12:15 10,7 C 58 % 1023,8 hPa 0,0 mm 7,4 km/h (2 Bft) S-SE 153 15 min 2,8 C 10,7 C 17,7 km/h (3 Bft)
26.03.2017 12:00 10,6 C 58 % 1024,0 hPa 0,0 mm 4,1 km/h (1 Bft) SE 137 15 min 2,7 C 10,6 C 20,9 km/h (4 Bft)
26.03.2017 11:45 10,6 C 62 % 1024,0 hPa 0,0 mm 2,5 km/h (1 Bft) N-NO 331 15 min 3,6 C 10,6 C 12,9 km/h (3 Bft)
26.03.2017 11:30 9,9 C 64 % 1024,1 hPa 0,0 mm 2,5 km/h (1 Bft) SO 234 15 min 3,4 C 9,9 C 16,1 km/h (3 Bft)
26.03.2017 11:15 9,8 C 66 % 1024,4 hPa 0,0 mm 0,9 km/h (0 Bft) N 359 15 min 3,8 C 9,8 C 4,8 km/h (1 Bft)
26.03.2017 11:00 9,6 C 65 % 1024,3 hPa 0,0 mm 1,1 km/h (1 Bft) O-NO 295 15 min 3,4 C 9,6 C 6,4 km/h (2 Bft)
26.03.2017 10:45 9,0 C 68 % 1024,4 hPa 0,0 mm 2,7 km/h (1 Bft) S 174 15 min 3,4 C 9,0 C 9,7 km/h (2 Bft)
26.03.2017 10:30 7,8 C 76 % 1024,3 hPa 0,0 mm 0,7 km/h (0 Bft) E-NE 60 15 min 3,8 C 7,8 C 6,4 km/h (2 Bft)
26.03.2017 10:15 6,9 C 78 % 1024,3 hPa 0,0 mm 1,3 km/h (1 Bft) N-NO 328 15 min 3,3 C 6,9 C 6,4 km/h (2 Bft)
26.03.2017 10:00 6,4 C 80 % 1024,2 hPa 0,0 mm 0,8 km/h (0 Bft) N 349 15 min 3,2 C 6,4 C 4,8 km/h (1 Bft)
26.03.2017 09:45 5,8 C 80 % 1024,2 hPa 0,0 mm 0,6 km/h (0 Bft) N 350 15 min 2,6 C 5,8 C 4,8 km/h (1 Bft)
26.03.2017 09:30 5,0 C 82 % 1024,2 hPa 0,0 mm 0,0 km/h (0 Bft) S 189 15 min 2,2 C 5,0 C 1,6 km/h (1 Bft)
26.03.2017 09:15 4,1 C 85 % 1024,0 hPa 0,0 mm 0,0 km/h (0 Bft) S 189 0 min 1,8 C 4,1 C 1,6 km/h (1 Bft)
26.03.2017 09:00 2,9 C 87 % 1023,9 hPa 0,0 mm 0,2 km/h (0 Bft) S 189 0 min 1,0 C 2,9 C 3,2 km/h (1 Bft)
26.03.2017 08:45 2,1 C 89 % 1023,7 hPa 0,0 mm 0,0 km/h (0 Bft) S 189 15 min 0,5 C 2,1 C 1,6 km/h (1 Bft)
26.03.2017 08:30 1,4 C 90 % 1023,7 hPa 0,0 mm 0,6 km/h (0 Bft) S 189 15 min -0,1 C 1,4 C 6,4 km/h (2 Bft)
26.03.2017 08:15 1,1 C 90 % 1023,6 hPa 0,0 mm 0,2 km/h (0 Bft) S-SE 168 0 min -0,4 C 1,1 C 3,2 km/h (1 Bft)
26.03.2017 08:00 0,8 C 89 % 1023,5 hPa 0,0 mm 0,1 km/h (0 Bft) S-SE 161 0 min -0,8 C 0,8 C 1,6 km/h (1 Bft)
26.03.2017 07:45 0,9 C 89 % 1023,3 hPa 0,0 mm 0,1 km/h (0 Bft) S-SE 161 0 min -0,7 C 0,9 C 1,6 km/h (1 Bft)
26.03.2017 07:30 1,3 C 89 % 1023,2 hPa 0,0 mm 0,0 km/h (0 Bft) S-SE 159 0 min -0,3 C 1,3 C 1,6 km/h (1 Bft)
26.03.2017 07:15 1,4 C 89 % 1023,2 hPa 0,0 mm 0,1 km/h (0 Bft) S-SE 158 0 min -0,2 C 1,4 C 1,6 km/h (1 Bft)
26.03.2017 07:00 1,4 C 88 % 1023,1 hPa 0,0 mm 0,0 km/h (0 Bft) S-SE 155 0 min -0,4 C 1,4 C 0,0 km/h (0 Bft)
26.03.2017 06:45 1,4 C 88 % 1023,0 hPa 0,0 mm 0,0 km/h (0 Bft) S-SE 155 0 min -0,4 C 1,4 C 0,0 km/h (0 Bft)
26.03.2017 06:30 1,5 C 87 % 1022,8 hPa 0,0 mm 0,0 km/h (0 Bft) S-SE 155 0 min -0,4 C 1,5 C 0,0 km/h (0 Bft)
26.03.2017 06:15 1,7 C 88 % 1022,8 hPa 0,0 mm 0,0 km/h (0 Bft) S-SE 155 0 min -0,1 C 1,7 C 0,0 km/h (0 Bft)
26.03.2017 06:00 1,7 C 87 % 1023,0 hPa 0,0 mm 0,0 km/h (0 Bft) S-SE 155 0 min -0,2 C 1,7 C 1,6 km/h (1 Bft)
26.03.2017 05:45 1,8 C 86 % 1023,0 hPa 0,0 mm 0,0 km/h (0 Bft) S-SE 155 0 min -0,3 C 1,8 C 0,0 km/h (0 Bft)
26.03.2017 05:30 1,7 C 85 % 1023,0 hPa 0,0 mm 0,1 km/h (0 Bft) S-SE 155 0 min -0,5 C 1,7 C 1,6 km/h (1 Bft)
26.03.2017 05:15 2,0 C 84 % 1022,8 hPa 0,0 mm 0,4 km/h (0 Bft) S-SE 155 0 min -0,4 C 2,0 C 3,2 km/h (1 Bft)
26.03.2017 05:00 2,3 C 83 % 1023,0 hPa 0,0 mm 0,3 km/h (0 Bft) SE 143 0 min -0,3 C 2,3 C 3,2 km/h (1 Bft)
_ Min-Heure 08:00 17:30 17:00 - 05:45 - - - 08:00 08:00 05:45
Minimum _ 0,8 C 40 % 1022,4 hPa - 0,0 km/h (0 Bft) - - - -0,8 C 0,8 C 0,0 km/h (0 Bft)
_ Max-Heure 17:30 08:15 00:00 05:00 14:45 - - 08:30 10:30 17:30 16:30
Maximum _ 13,8 C 90 % 1024,8 hPa 0,0 mm 10,0 km/h
NE (2 Bft)
- - 15 min 3,8 C 13,8 C 25,7 km/h
E-SE (4 Bft)
Moyenne _ 7,5 C 65 % 1023,6 hPa #0,0 mm 3,3 km/h (1 Bft) SE - #0 min. 0,9 C 7,5 C 9,6 km/h (2 Bft)